Time;durP1;ratioP1;P1;durP2;ratioP2;P2;SDS_P1;SDS_P2;PMS_P1;PMS_P2;Temp;Humidity;BMP_temperature;BMP_pressure;BME280_temperature;BME280_humidity;BME280_pressure;Samples;Min_cycle;Max_cycle;Signal;HPM_P1;HPM_P2
2023/07/24 00:01:37;;;;;;;16.05;12.25;;;;;;;23.28;100.00;99751.09;10412083;28;20146;-73
2023/07/24 00:06:38;;;;;;;15.70;11.65;;;;;;;23.13;100.00;99725.56;10418316;28;20155;-72
2023/07/24 00:11:39;;;;;;;20.55;11.95;;;;;;;22.65;100.00;99648.97;10419752;28;20425;-73
2023/07/24 00:16:39;;;;;;;15.70;10.68;;;;;;;23.20;100.00;99728.81;10436234;28;20037;-73
2023/07/24 00:21:40;;;;;;;17.40;12.85;;;;;;;23.33;100.00;99729.41;10419929;28;20111;-72
2023/07/24 00:26:41;;;;;;;16.42;12.63;;;;;;;23.27;100.00;99709.59;10420818;28;20042;-72
2023/07/24 00:31:41;;;;;;;14.48;11.73;;;;;;;23.32;100.00;99727.78;10419565;28;20039;-73
2023/07/24 00:36:42;;;;;;;18.15;12.95;;;;;;;22.93;100.00;99677.50;10418801;28;20041;-73
2023/07/24 00:41:43;;;;;;;17.52;11.90;;;;;;;23.26;100.00;99728.84;10418936;28;20044;-72
2023/07/24 00:46:44;;;;;;;15.30;12.30;;;;;;;23.42;100.00;99730.50;10418267;28;20037;-72
2023/07/24 00:51:46;;;;;;;16.58;11.63;;;;;;;23.47;100.00;99716.97;10418601;28;20048;-72
2023/07/24 00:56:46;;;;;;;15.60;11.25;;;;;;;23.53;100.00;99715.09;10416928;28;20048;-72
2023/07/24 01:01:47;;;;;;;12.43;11.15;;;;;;;23.51;100.00;99707.19;10418303;28;20048;-72
2023/07/24 01:06:49;;;;;;;12.07;10.82;;;;;;;23.05;100.00;99628.53;10418974;28;20527;-72
2023/07/24 01:12:07;;;;;;;19.75;11.63;;;;;;;23.25;100.00;99652.16;10418876;28;20041;-72
2023/07/24 01:17:09;;;;;;;14.13;10.15;;;;;;;23.72;100.00;99721.63;10432801;28;20095;-72
2023/07/24 01:22:27;;;;;;;18.60;13.10;;;;;;;23.74;100.00;99708.63;10417606;28;20567;-73
2023/07/24 01:27:27;;;;;;;27.33;13.98;;;;;;;23.73;100.00;99706.19;10417431;28;20130;-72
2023/07/24 01:32:28;;;;;;;19.80;14.55;;;;;;;23.80;100.00;99725.72;10416724;28;20128;-73
2023/07/24 01:37:30;;;;;;;25.92;14.20;;;;;;;23.31;100.00;99639.44;10416920;28;20045;-72
2023/07/24 01:42:31;;;;;;;27.27;13.85;;;;;;;23.42;100.00;99677.13;10416886;28;20083;-72
2023/07/24 01:47:32;;;;;;;15.27;12.73;;;;;;;23.73;100.00;99730.59;10417652;28;20056;-72
2023/07/24 01:52:33;;;;;;;17.88;13.35;;;;;;;23.74;100.00;99738.44;10416533;28;20053;-72
2023/07/24 01:57:34;;;;;;;23.80;11.52;;;;;;;23.75;100.00;99750.09;10416294;28;20076;-72
2023/07/24 02:02:34;;;;;;;14.07;10.52;;;;;;;23.68;100.00;99742.22;10416392;28;20045;-72
2023/07/24 02:07:35;;;;;;;22.05;9.82;;;;;;;23.69;100.00;99732.97;10423485;28;20411;-72
2023/07/24 02:12:36;;;;;;;29.20;11.02;;;;;;;23.82;100.00;99750.69;10420947;28;20059;-72
2023/07/24 02:17:37;;;;;;;21.10;10.32;;;;;;;23.88;100.00;99761.25;10415512;28;20038;-72
2023/07/24 02:22:37;;;;;;;17.30;9.52;;;;;;;23.85;100.00;99761.00;10415237;28;20495;-73
2023/07/24 02:27:38;;;;;;;16.65;9.40;;;;;;;23.44;100.00;99690.41;10415067;28;20091;-72
2023/07/24 02:32:39;;;;;;;18.15;10.25;;;;;;;23.85;100.00;99752.84;10415199;28;20132;-73
2023/07/24 02:37:40;;;;;;;12.13;8.15;;;;;;;23.88;100.00;99768.59;10429387;28;20044;-73
2023/07/24 02:42:40;;;;;;;12.40;8.40;;;;;;;23.85;100.00;99763.69;10414554;28;20063;-73
2023/07/24 02:47:42;;;;;;;13.13;7.93;;;;;;;23.86;100.00;99762.59;10413433;28;20043;-73
2023/07/24 02:52:43;;;;;;;12.00;7.40;;;;;;;23.89;100.00;99764.78;10414301;28;20088;-73
2023/07/24 02:57:43;;;;;;;17.70;7.90;;;;;;;23.99;100.00;99770.22;10413448;28;20466;-73
2023/07/24 03:02:44;;;;;;;12.90;7.97;;;;;;;24.06;100.00;99770.75;10414242;28;20045;-73
2023/07/24 03:07:45;;;;;;;12.70;7.90;;;;;;;23.73;100.00;99717.03;10413206;28;20110;-73
2023/07/24 03:12:46;;;;;;;8.70;6.38;;;;;;;24.47;100.00;99770.78;10413393;28;20033;-73
2023/07/24 03:17:46;;;;;;;11.18;7.53;;;;;;;24.57;100.00;99748.22;10412740;28;20045;-73
2023/07/24 03:22:47;;;;;;;23.15;8.38;;;;;;;24.71;100.00;99770.16;10413466;28;20092;-73
2023/07/24 03:27:48;;;;;;;13.85;7.55;;;;;;;24.70;100.00;99773.97;10412859;28;20128;-73
2023/07/24 03:32:48;;;;;;;13.00;7.80;;;;;;;24.97;99.45;99773.63;10411558;28;20095;-73
2023/07/24 03:37:49;;;;;;;14.02;8.80;;;;;;;24.90;99.45;99773.13;10413489;28;20037;-73
2023/07/24 03:42:50;;;;;;;29.52;9.88;;;;;;;24.89;99.65;99760.59;10422328;28;20049;-73
2023/07/24 03:47:51;;;;;;;17.42;8.35;;;;;;;25.02;99.35;99781.75;10421622;28;20045;-73
2023/07/24 03:52:51;;;;;;;16.60;10.15;;;;;;;24.97;98.38;99770.91;10420778;28;20136;-73
2023/07/24 03:57:52;;;;;;;10.85;7.85;;;;;;;24.37;97.53;99654.00;10420365;28;20412;-73
2023/07/24 04:02:53;;;;;;;12.27;7.88;;;;;;;25.49;96.40;99789.47;10420448;28;20048;-73
2023/07/24 04:07:55;;;;;;;14.18;8.20;;;;;;;25.19;95.03;99789.63;10427439;28;20041;-73
2023/07/24 04:12:56;;;;;;;13.10;8.35;;;;;;;25.07;94.35;99798.06;10420862;28;20045;-73
2023/07/24 04:17:57;;;;;;;15.88;10.02;;;;;;;24.69;95.08;99747.91;10420682;28;20454;-73
2023/07/24 04:22:58;;;;;;;19.33;9.00;;;;;;;24.99;95.33;99801.34;10419100;28;20065;-74
2023/07/24 04:27:59;;;;;;;13.70;8.93;;;;;;;24.50;95.32;99726.78;10445300;28;20044;-73
2023/07/24 04:32:59;;;;;;;14.55;9.48;;;;;;;25.00;94.77;99806.47;10449818;28;20040;-73
2023/07/24 04:38:00;;;;;;;13.63;9.82;;;;;;;24.98;94.95;99808.69;10446368;28;20477;-74
2023/07/24 04:43:01;;;;;;;13.43;10.38;;;;;;;24.95;95.03;99808.41;10428449;28;20074;-72
2023/07/24 04:48:02;;;;;;;15.70;11.20;;;;;;;25.01;94.69;99820.91;10429471;28;20493;-72
2023/07/24 04:53:03;;;;;;;15.32;10.80;;;;;;;24.97;95.00;99817.09;10457158;28;20093;-72
2023/07/24 04:58:06;;;;;;;14.27;11.13;;;;;;;24.87;96.37;99823.38;10459589;28;20078;-72
2023/07/24 05:03:10;;;;;;;16.05;11.45;;;;;;;24.83;95.99;99808.72;10458472;28;20079;-72
2023/07/24 05:08:11;;;;;;;17.52;11.48;;;;;;;24.85;96.65;99820.13;10459687;28;20044;-72
2023/07/24 05:13:12;;;;;;;14.82;12.43;;;;;;;24.77;97.28;99826.13;10459793;28;20044;-72
2023/07/24 05:18:13;;;;;;;20.17;11.20;;;;;;;24.78;98.11;99825.03;10459385;28;20493;-72
2023/07/24 05:23:14;;;;;;;14.00;10.43;;;;;;;24.75;98.56;99831.00;10459045;28;20103;-72
2023/07/24 05:28:15;;;;;;;15.75;8.98;;;;;;;24.70;97.54;99829.09;10458174;28;20065;-72
2023/07/24 05:33:16;;;;;;;16.02;7.50;;;;;;;24.65;95.80;99844.59;10458918;28;20527;-72
2023/07/24 05:38:16;;;;;;;10.32;6.00;;;;;;;24.58;94.37;99848.41;10457776;28;20132;-71
2023/07/24 05:43:17;;;;;;;10.40;6.45;;;;;;;24.52;94.64;99845.97;10458306;28;20396;-73
2023/07/24 05:48:18;;;;;;;9.80;6.53;;;;;;;24.35;93.94;99827.19;10457970;28;20493;-72
2023/07/24 05:53:18;;;;;;;9.35;6.68;;;;;;;23.98;94.02;99789.47;10457087;28;20064;-73
2023/07/24 05:58:19;;;;;;;22.17;7.10;;;;;;;24.06;93.92;99787.03;10457998;28;20397;-73
2023/07/24 06:03:20;;;;;;;10.98;6.80;;;;;;;24.56;94.07;99857.91;10456651;28;20033;-72
2023/07/24 06:08:21;;;;;;;16.92;4.55;;;;;;;24.39;91.12;99855.44;10456547;28;20582;-72
2023/07/24 06:13:22;;;;;;;7.40;3.47;;;;;;;24.28;89.23;99845.66;10456296;28;20094;-74
2023/07/24 06:18:22;;;;;;;6.78;3.53;;;;;;;24.13;89.52;99865.47;10456791;28;20049;-74
2023/07/24 06:23:23;;;;;;;9.50;3.55;;;;;;;24.05;89.03;99861.41;10456037;28;20067;-73
2023/07/24 06:28:24;;;;;;;5.10;3.00;;;;;;;23.96;88.55;99846.72;10456310;28;20041;-72
2023/07/24 06:33:25;;;;;;;7.63;3.22;;;;;;;23.58;87.63;99799.94;10455427;28;20045;-72
2023/07/24 06:38:25;;;;;;;10.40;3.40;;;;;;;23.92;87.34;99856.47;10455935;28;20040;-73
2023/07/24 06:43:27;;;;;;;6.05;3.30;;;;;;;23.97;86.89;99856.50;10455485;28;20045;-73
2023/07/24 06:48:28;;;;;;;10.82;3.50;;;;;;;23.99;86.72;99843.47;10455640;28;20404;-76
2023/07/24 06:53:28;;;;;;;5.28;3.10;;;;;;;24.09;86.66;99839.97;10454793;28;20037;-72
2023/07/24 06:58:29;;;;;;;7.32;3.33;;;;;;;23.97;86.46;99825.84;10455326;28;20038;-73
2023/07/24 07:03:30;;;;;;;17.73;3.83;;;;;;;24.00;87.24;99845.09;10454617;28;20044;-72
2023/07/24 07:08:30;;;;;;;8.68;4.10;;;;;;;24.08;87.35;99846.44;10455126;28;20052;-73
2023/07/24 07:13:31;;;;;;;7.75;3.50;;;;;;;23.51;87.00;99764.13;10454503;28;20039;-73
2023/07/24 07:18:32;;;;;;;6.70;4.15;;;;;;;24.10;87.34;99844.28;10454657;28;20044;-75
2023/07/24 07:23:33;;;;;;;6.68;4.35;;;;;;;24.11;87.64;99862.19;10454502;28;20064;-74
2023/07/24 07:28:35;;;;;;;9.38;3.90;;;;;;;24.15;87.06;99852.44;10453771;28;20049;-72
2023/07/24 07:33:36;;;;;;;9.70;3.47;;;;;;;23.99;87.58;99856.19;10453608;28;20044;-73
2023/07/24 07:38:39;;;;;;;7.68;3.70;;;;;;;24.06;88.73;99865.72;10455406;28;20077;-72
2023/07/24 07:43:40;;;;;;;15.55;4.85;;;;;;;24.02;88.46;99861.94;10454198;28;20501;-72
2023/07/24 07:48:41;;;;;;;9.45;4.07;;;;;;;24.04;87.99;99851.59;10454435;28;20041;-72
2023/07/24 07:53:41;;;;;;;26.05;4.35;;;;;;;23.99;88.30;99842.63;10453362;28;20044;-74
2023/07/24 07:58:42;;;;;;;8.85;3.60;;;;;;;23.80;88.49;99836.91;10453386;28;20071;-72
2023/07/24 08:03:43;;;;;;;5.47;3.20;;;;;;;23.81;88.57;99862.94;10453756;28;20074;-74
2023/07/24 08:08:43;;;;;;;20.30;5.00;;;;;;;23.57;88.74;99803.75;10453330;28;20123;-72
2023/07/24 08:13:44;;;;;;;7.13;3.70;;;;;;;24.01;88.92;99849.44;10453741;28;20041;-75
2023/07/24 08:18:47;;;;;;;9.85;4.28;;;;;;;24.12;88.11;99855.69;10454126;28;20044;-73
2023/07/24 08:23:48;;;;;;;6.30;3.33;;;;;;;23.92;87.52;99807.63;10452858;28;20130;-74
2023/07/24 08:28:48;;;;;;;12.68;4.43;;;;;;;24.42;88.38;99873.09;10459813;28;20087;-74
2023/07/24 08:33:49;;;;;;;6.45;3.38;;;;;;;24.24;88.13;99831.00;10461532;28;20439;-73
2023/07/24 08:38:50;;;;;;;10.02;3.75;;;;;;;23.67;87.49;99741.41;10461102;28;20045;-74
2023/07/24 08:43:52;;;;;;;5.63;3.25;;;;;;;24.53;86.89;99872.84;10460453;28;20049;-74
2023/07/24 08:48:54;;;;;;;11.00;3.75;;;;;;;24.55;86.52;99873.38;10458612;28;20527;-73
2023/07/24 08:53:56;;;;;;;13.52;4.18;;;;;;;24.34;86.84;99860.88;10460489;28;20040;-74
2023/07/24 08:58:57;;;;;;;8.40;4.00;;;;;;;24.36;86.56;99866.84;10459291;28;20508;-75
2023/07/24 09:03:58;;;;;;;29.60;4.35;;;;;;;24.17;87.87;99825.03;10459569;28;20147;-74
2023/07/24 09:08:58;;;;;;;11.20;4.47;;;;;;;24.94;87.79;99883.66;10459629;28;20037;-74
2023/07/24 09:13:59;;;;;;;14.20;4.75;;;;;;;24.75;87.94;99820.16;10459566;28;20463;-74
2023/07/24 09:19:00;;;;;;;7.32;4.60;;;;;;;25.26;86.75;99871.69;10459817;28;20037;-74
2023/07/24 09:24:14;;;;;;;7.80;3.78;;;;;;;25.47;86.07;99865.06;10458908;28;20061;-74
2023/07/24 09:29:14;;;;;;;6.50;3.88;;;;;;;25.28;84.59;99883.09;10458792;28;20091;-75
2023/07/24 09:34:19;;;;;;;6.35;3.63;;;;;;;25.03;84.61;99883.94;10457791;28;20500;-74
2023/07/24 09:39:28;;;;;;;9.02;4.05;;;;;;;25.12;86.98;99892.34;10458302;28;20041;-73
2023/07/24 09:44:31;;;;;;;10.57;4.03;;;;;;;25.11;85.95;99893.44;10456871;28;20048;-76
2023/07/24 09:49:32;;;;;;;5.70;3.40;;;;;;;25.12;84.29;99881.47;10427763;28;20045;-76
2023/07/24 09:54:41;;;;;;;6.40;3.90;;;;;;;25.18;83.63;99891.25;10421602;28;20045;-74
2023/07/24 09:59:42;;;;;;;10.55;4.32;;;;;;;24.87;83.59;99817.94;10445268;28;20048;-75
2023/07/24 10:16:59;;;;;;;6.70;3.20;;;;;;;26.42;75.96;99852.28;10424924;28;20411;-74
2023/07/24 10:22:02;;;;;;;6.82;3.35;;;;;;;26.53;74.67;99869.34;10425640;28;20045;-73
2023/07/24 10:27:04;;;;;;;7.95;3.90;;;;;;;26.95;73.27;99846.88;10419456;28;20124;-77
2023/07/24 10:32:25;;;;;;;8.60;3.70;;;;;;;27.46;72.14;99790.94;10418308;28;20045;-72
2023/07/24 10:37:34;;;;;;;8.63;3.67;;;;;;;28.34;69.73;99833.06;10437601;28;20045;-75
2023/07/24 10:42:35;;;;;;;11.07;3.70;;;;;;;28.29;69.25;99815.94;10440276;28;20048;-74
2023/07/24 10:47:36;;;;;;;17.13;4.45;;;;;;;27.96;69.33;99753.13;10439039;28;20043;-75
2023/07/24 10:52:37;;;;;;;6.68;3.90;;;;;;;28.34;68.38;99810.41;10431178;28;20143;-74
2023/07/24 10:57:37;;;;;;;5.70;3.40;;;;;;;28.16;67.78;99777.38;10438707;28;20078;-74
2023/07/24 11:02:38;;;;;;;34.50;5.22;;;;;;;28.06;68.66;99779.44;10440163;28;20077;-75
2023/07/24 11:07:39;;;;;;;7.80;4.18;;;;;;;28.14;67.02;99771.38;10440085;28;20048;-73
2023/07/24 11:12:40;;;;;;;11.38;3.60;;;;;;;28.38;65.67;99751.31;10437185;28;20465;-73
2023/07/24 11:17:42;;;;;;;9.57;3.70;;;;;;;28.47;64.39;99765.13;10412606;28;20420;-76
2023/07/24 11:22:43;;;;;;;5.53;2.92;;;;;;;28.50;62.95;99748.13;10410585;28;20083;-72
2023/07/24 11:27:44;;;;;;;4.15;2.40;;;;;;;28.44;60.59;99717.38;10411712;28;20045;-71
2023/07/24 11:32:46;;;;;;;3.88;2.53;;;;;;;28.80;59.30;99690.13;10411303;28;20038;-73
2023/07/24 11:37:47;;;;;;;9.43;2.72;;;;;;;28.96;61.15;99693.38;10411022;28;20045;-75
2023/07/24 11:42:48;;;;;;;10.15;2.85;;;;;;;29.45;60.82;99727.31;10411316;28;20049;-75
2023/07/24 11:47:50;;;;;;;3.40;2.58;;;;;;;29.37;58.89;99687.00;10410415;28;20045;-76
2023/07/24 11:52:53;;;;;;;4.72;2.90;;;;;;;29.70;58.94;99725.13;10409703;28;20074;-74
2023/07/24 11:58:00;;;;;;;6.43;3.00;;;;;;;29.25;58.11;99646.50;10390282;28;20083;-73
2023/07/24 12:03:04;;;;;;;5.05;2.50;;;;;;;29.40;57.49;99741.09;10410110;28;20508;-74
2023/07/24 12:08:05;;;;;;;4.75;2.47;;;;;;;29.08;57.18;99669.06;10410754;28;20051;-73
2023/07/24 12:13:07;;;;;;;6.70;1.90;;;;;;;29.58;55.80;99739.34;10409939;28;20186;-73
2023/07/24 12:18:07;;;;;;;6.10;2.28;;;;;;;29.69;55.77;99731.72;10410336;28;20434;-74
2023/07/24 12:23:08;;;;;;;4.53;2.13;;;;;;;29.76;55.68;99718.41;10406865;28;20097;-74
2023/07/24 12:28:09;;;;;;;9.15;2.13;;;;;;;30.05;55.30;99736.34;10408121;28;20048;-75
2023/07/24 12:33:09;;;;;;;5.72;2.10;;;;;;;30.19;55.00;99728.84;10409780;28;20516;-73
2023/07/24 12:38:10;;;;;;;8.82;2.17;;;;;;;29.84;55.67;99733.28;10409862;28;20171;-74
2023/07/24 12:43:11;;;;;;;11.88;2.38;;;;;;;29.35;56.32;99727.56;10408936;28;20114;-74
2023/07/24 12:48:12;;;;;;;6.93;2.22;;;;;;;28.62;56.86;99704.72;10408437;28;20122;-74
2023/07/24 12:53:12;;;;;;;10.75;2.47;;;;;;;28.24;57.77;99644.81;10408456;28;20041;-72
2023/07/24 12:58:13;;;;;;;5.20;1.85;;;;;;;29.07;56.93;99710.38;10409054;28;20523;-74
2023/07/24 13:03:14;;;;;;;7.90;2.17;;;;;;;28.80;56.73;99676.47;10406700;28;20190;-75
2023/07/24 13:08:14;;;;;;;5.90;2.10;;;;;;;28.73;57.71;99691.69;10409621;28;20045;-74
2023/07/24 13:13:15;;;;;;;5.95;2.30;;;;;;;28.60;58.53;99691.38;10411112;28;20061;-75
2023/07/24 13:18:17;;;;;;;5.28;2.15;;;;;;;28.86;59.57;99677.97;10404113;28;20038;-72
2023/07/24 13:23:18;;;;;;;3.22;1.90;;;;;;;28.59;59.28;99623.34;10404212;28;20094;-76
2023/07/24 13:28:18;;;;;;;4.88;2.30;;;;;;;28.76;60.03;99688.34;10408221;28;20042;-75
2023/07/24 13:33:21;;;;;;;5.63;2.90;;;;;;;28.83;60.23;99683.25;10407884;28;20497;-74
2023/07/24 13:38:22;;;;;;;5.45;2.72;;;;;;;29.13;59.74;99690.81;10407469;28;20509;-74
2023/07/24 13:43:23;;;;;;;3.30;2.33;;;;;;;29.01;60.12;99693.25;10407778;28;20114;-74
2023/07/24 13:48:24;;;;;;;5.10;2.47;;;;;;;28.63;60.92;99685.31;10407037;28;20046;-73
2023/07/24 13:53:24;;;;;;;9.15;2.70;;;;;;;28.60;61.31;99690.56;10407614;28;20050;-73
2023/07/24 13:58:25;;;;;;;6.10;2.42;;;;;;;28.51;61.77;99687.75;10406714;28;20037;-73
2023/07/24 14:03:28;;;;;;;6.47;2.22;;;;;;;28.41;61.72;99679.72;10406690;28;20045;-73
2023/07/24 14:08:29;;;;;;;13.88;3.10;;;;;;;28.26;62.67;99699.91;10407291;28;20034;-74
2023/07/24 14:13:30;;;;;;;8.68;2.25;;;;;;;28.27;62.86;99704.28;10406488;28;20554;-75
2023/07/24 14:18:31;;;;;;;5.32;2.45;;;;;;;27.92;62.03;99632.81;10406558;28;20044;-73
2023/07/24 14:23:31;;;;;;;10.05;2.60;;;;;;;28.31;62.77;99720.88;10407196;28;20527;-74
2023/07/24 14:28:32;;;;;;;6.53;2.40;;;;;;;28.01;63.65;99719.50;10404901;28;20041;-74
2023/07/24 14:33:33;;;;;;;11.25;2.50;;;;;;;27.85;64.07;99713.44;10405917;28;20046;-73
2023/07/24 14:38:34;;;;;;;6.30;2.55;;;;;;;27.68;64.66;99714.78;10405951;28;20038;-74
2023/07/24 14:43:34;;;;;;;83.90;6.95;;;;;;;27.54;65.73;99722.09;10406344;28;20037;-73
2023/07/24 14:48:35;;;;;;;8.13;3.30;;;;;;;27.41;65.86;99725.56;10406125;28;20412;-71
2023/07/24 14:53:38;;;;;;;19.00;3.00;;;;;;;27.22;66.42;99720.09;10416139;28;20046;-71
2023/07/24 14:58:42;;;;;;;75.03;6.35;;;;;;;26.86;67.75;99693.28;10411966;28;20041;-73
2023/07/24 15:03:42;;;;;;;16.15;3.65;;;;;;;26.90;68.38;99737.13;10410958;28;20041;-71
2023/07/24 15:08:43;;;;;;;17.73;3.67;;;;;;;26.58;71.25;99706.69;10412332;28;20049;-71
2023/07/24 15:13:44;;;;;;;18.42;4.35;;;;;;;26.31;74.55;99725.47;10412146;28;20068;-71
2023/07/24 15:18:45;;;;;;;6.88;3.17;;;;;;;25.42;78.40;99633.16;10411735;28;20500;-71
2023/07/24 15:23:51;;;;;;;12.35;3.70;;;;;;;25.70;80.44;99719.44;10412031;28;20048;-69
2023/07/24 15:28:52;;;;;;;5.55;3.33;;;;;;;25.46;82.42;99745.72;10412433;28;20054;-75
2023/07/24 15:33:53;;;;;;;22.23;9.52;;;;;;;24.78;84.46;99660.13;10409803;28;20101;-76
2023/07/24 15:38:53;;;;;;;10.90;5.15;;;;;;;25.01;86.20;99713.03;10411130;28;20041;-76
2023/07/24 15:43:54;;;;;;;19.63;4.68;;;;;;;24.78;89.00;99714.47;10410906;28;20045;-76
2023/07/24 15:48:56;;;;;;;6.00;3.72;;;;;;;24.51;91.59;99717.53;10411791;28;20044;-75
2023/07/24 15:53:58;;;;;;;10.00;6.28;;;;;;;24.46;92.21;99749.31;10409628;28;20064;-79
2023/07/24 15:58:58;;;;;;;9.35;5.40;;;;;;;24.25;92.95;99726.78;10390863;28;20461;-78
2023/07/24 16:03:59;;;;;;;8.60;4.43;;;;;;;24.23;93.50;99769.66;10388890;28;20144;-78
2023/07/24 16:09:00;;;;;;;20.50;9.48;;;;;;;23.86;95.13;99744.44;10409942;28;20044;-79
2023/07/24 16:14:01;;;;;;;17.90;8.55;;;;;;;23.52;96.98;99708.84;10411108;28;20068;-78
2023/07/24 16:19:18;;;;;;;11.15;6.20;;;;;;;23.48;100.00;99707.75;10410811;28;20046;-76
2023/07/24 16:24:22;;;;;;;15.50;7.00;;;;;;;23.21;99.39;99681.69;10410234;28;20128;-76
2023/07/24 16:29:23;;;;;;;12.40;6.43;;;;;;;23.68;99.77;99777.47;10409179;28;20041;-75
2023/07/24 16:34:23;;;;;;;10.43;6.65;;;;;;;23.62;99.93;99771.22;10409327;28;20049;-76
2023/07/24 16:39:24;;;;;;;11.50;5.97;;;;;;;23.54;100.00;99788.00;10409907;28;20041;-77
2023/07/24 16:44:25;;;;;;;15.93;4.95;;;;;;;23.45;100.00;99795.03;10409640;28;20041;-78
2023/07/24 16:49:26;;;;;;;12.50;6.80;;;;;;;22.93;100.00;99766.06;10409458;28;20037;-77
2023/07/24 16:54:27;;;;;;;15.88;7.38;;;;;;;23.18;100.00;99830.41;10409232;28;20045;-76
2023/07/24 16:59:27;;;;;;;11.00;7.57;;;;;;;23.08;100.00;99804.09;10407390;28;20651;-75
2023/07/24 17:04:28;;;;;;;11.07;6.28;;;;;;;23.09;100.00;99803.00;10406154;28;20102;-80
2023/07/24 17:09:29;;;;;;;12.30;5.28;;;;;;;23.21;100.00;99828.03;10408698;28;20041;-81
2023/07/24 17:14:30;;;;;;;7.10;4.82;;;;;;;23.07;100.00;99809.78;10408386;28;20492;-80
2023/07/24 17:19:31;;;;;;;8.60;4.97;;;;;;;22.78;100.00;99740.53;10407493;28;20046;-80
2023/07/24 17:24:31;;;;;;;6.93;4.90;;;;;;;23.12;100.00;99799.78;10395621;28;20045;-77
2023/07/24 17:29:32;;;;;;;6.97;5.25;;;;;;;23.06;100.00;99787.28;10383432;28;20068;-81
2023/07/24 17:34:33;;;;;;;9.90;5.10;;;;;;;22.45;100.00;99706.53;10382096;28;20053;-78
2023/07/24 17:39:33;;;;;;;12.43;5.70;;;;;;;22.83;100.00;99799.34;10407447;28;20124;-78
2023/07/24 17:44:34;;;;;;;7.55;5.10;;;;;;;22.45;100.00;99743.59;10408490;28;20052;-79
2023/07/24 17:49:37;;;;;;;9.13;5.80;;;;;;;22.38;100.00;99751.16;10407641;28;20050;-80
2023/07/24 17:54:43;;;;;;;10.07;5.67;;;;;;;22.77;100.00;99841.00;10406861;28;20053;-79
2023/07/24 17:59:44;;;;;;;9.52;5.70;;;;;;;22.63;100.00;99837.91;10407047;28;20049;-81
2023/07/24 18:04:44;;;;;;;7.45;5.78;;;;;;;22.75;100.00;99873.75;10405830;28;20049;-80
2023/07/24 18:09:45;;;;;;;7.70;5.80;;;;;;;22.65;100.00;99857.44;10406840;28;20038;-81
2023/07/24 18:14:46;;;;;;;7.88;6.10;;;;;;;22.18;100.00;99793.19;10406263;28;20053;-81
2023/07/24 18:19:47;;;;;;;9.80;6.05;;;;;;;22.58;100.00;99866.84;10406998;28;20145;-82
2023/07/24 18:24:48;;;;;;;9.52;6.32;;;;;;;22.70;100.00;99873.69;10408178;28;20034;-82
2023/07/24 18:29:48;;;;;;;10.75;6.80;;;;;;;22.59;100.00;99847.66;10413323;28;20069;-82
2023/07/24 18:34:49;;;;;;;9.02;6.70;;;;;;;22.31;100.00;99800.88;10412178;28;20041;-84
2023/07/24 18:39:50;;;;;;;8.65;7.00;;;;;;;22.61;100.00;99840.06;10412205;28;20439;-83
2023/07/24 18:44:51;;;;;;;15.30;6.45;;;;;;;22.59;100.00;99852.25;10413317;28;20037;-81
2023/07/24 18:49:51;;;;;;;10.15;7.40;;;;;;;22.53;100.00;99848.69;10606665;27;20041;-82
2023/07/24 18:54:52;;;;;;;8.70;6.95;;;;;;;22.55;100.00;99841.94;10628797;27;20047;-82
2023/07/24 18:59:53;;;;;;;10.60;7.72;;;;;;;22.10;100.00;99778.22;10627868;27;20065;-82
2023/07/24 19:04:54;;;;;;;9.60;7.00;;;;;;;22.45;100.00;99849.16;10629014;27;20447;-81
2023/07/24 19:09:55;;;;;;;10.52;6.78;;;;;;;22.32;100.00;99837.69;10629488;27;20042;-82
2023/07/24 19:14:56;;;;;;;13.07;7.30;;;;;;;22.37;100.00;99838.78;10628511;27;20063;-82
2023/07/24 19:19:56;;;;;;;9.88;7.80;;;;;;;22.27;100.00;99836.84;10627871;27;20035;-82
2023/07/24 19:24:57;;;;;;;11.43;7.70;;;;;;;22.15;100.00;99834.25;10628527;27;20035;-81
2023/07/24 19:30:01;;;;;;;14.60;7.07;;;;;;;22.06;100.00;99820.38;10628634;27;20035;-82
2023/07/24 19:35:02;;;;;;;8.90;8.00;;;;;;;22.06;100.00;99820.38;10627146;27;20054;-81
2023/07/24 19:40:04;;;;;;;9.77;7.75;;;;;;;22.02;100.00;99813.06;10627604;27;20045;-82
2023/07/24 19:45:05;;;;;;;8.98;8.07;;;;;;;22.03;100.00;99807.38;10627096;27;20074;-82
2023/07/24 19:50:06;;;;;;;8.82;7.55;;;;;;;21.96;100.00;99785.13;10627546;27;20035;-81
2023/07/24 19:55:07;;;;;;;9.05;7.88;;;;;;;21.90;100.00;99788.88;10626537;27;20092;-82
2023/07/24 20:00:09;;;;;;;10.00;7.60;;;;;;;21.79;100.00;99781.72;10626335;27;20406;-82
2023/07/24 20:05:09;;;;;;;12.65;7.75;;;;;;;21.62;100.00;99762.91;10626591;27;20035;-81
2023/07/24 20:10:10;;;;;;;12.43;7.60;;;;;;;21.40;100.00;99709.72;10625789;27;20043;-81
2023/07/24 20:15:15;;;;;;;13.65;8.23;;;;;;;21.57;100.00;99736.66;10625748;27;20051;-80
2023/07/24 20:20:16;;;;;;;10.73;8.75;;;;;;;21.34;100.00;99678.28;10626649;27;20035;-82
2023/07/24 20:25:17;;;;;;;13.65;8.80;;;;;;;21.54;100.00;99723.66;10624548;27;20042;-82
2023/07/24 20:30:18;;;;;;;10.63;8.70;;;;;;;21.31;100.00;99686.09;10625600;27;20417;-82
2023/07/24 20:35:18;;;;;;;10.25;8.38;;;;;;;21.70;100.00;99754.34;10625433;27;20047;-81
2023/07/24 20:40:20;;;;;;;15.77;8.85;;;;;;;21.76;100.00;99777.63;10625053;27;20027;-81
2023/07/24 20:45:20;;;;;;;11.40;8.90;;;;;;;21.64;100.00;99764.28;10624750;27;20188;-80
2023/07/24 20:50:21;;;;;;;13.98;8.95;;;;;;;21.72;100.00;99773.81;10622707;27;20528;-82
2023/07/24 20:55:22;;;;;;;13.20;8.63;;;;;;;21.59;100.00;99747.19;10624096;27;20126;-81
2023/07/24 21:00:23;;;;;;;11.65;8.63;;;;;;;21.53;100.00;99750.91;10624197;27;20031;-82
2023/07/24 21:05:24;;;;;;;12.75;9.18;;;;;;;21.13;100.00;99708.84;10416494;27;20045;-81
2023/07/24 21:10:24;;;;;;;11.25;8.82;;;;;;;21.43;100.00;99778.66;10407862;28;20136;-82
2023/07/24 21:15:25;;;;;;;12.85;8.38;;;;;;;21.17;100.00;99769.38;10407281;28;20068;-82
2023/07/24 21:20:26;;;;;;;12.45;9.30;;;;;;;21.10;100.00;99779.56;10408631;28;20070;-81
2023/07/24 21:25:27;;;;;;;11.88;10.00;;;;;;;20.96;100.00;99760.22;10408439;28;20033;-81
2023/07/24 21:30:27;;;;;;;14.65;10.18;;;;;;;21.05;100.00;99777.63;10407822;28;20038;-80
2023/07/24 21:35:28;;;;;;;12.77;10.23;;;;;;;21.03;100.00;99778.94;10408511;28;20037;-81
2023/07/24 21:40:29;;;;;;;11.77;9.43;;;;;;;20.97;100.00;99786.97;10408351;28;20041;-81
2023/07/24 21:45:30;;;;;;;13.88;9.55;;;;;;;20.91;100.00;99789.84;10407914;28;20049;-82
2023/07/24 21:50:30;;;;;;;11.48;9.27;;;;;;;20.83;100.00;99793.81;10407210;28;20033;-80
2023/07/24 21:55:31;;;;;;;14.90;9.60;;;;;;;20.85;100.00;99805.19;10407619;28;20098;-81
2023/07/24 22:00:34;;;;;;;12.68;9.18;;;;;;;20.66;100.00;99795.72;10406729;28;20041;-78
2023/07/24 22:05:34;;;;;;;12.98;10.35;;;;;;;20.19;100.00;99726.75;10407205;28;20071;-81
2023/07/24 22:10:35;;;;;;;15.38;10.10;;;;;;;20.22;100.00;99726.25;10406554;28;20121;-81
2023/07/24 22:15:36;;;;;;;13.52;10.43;;;;;;;20.66;100.00;99784.91;10407397;28;20069;-81
2023/07/24 22:20:38;;;;;;;16.75;11.00;;;;;;;20.79;100.00;99798.06;10407249;28;20037;-80
2023/07/24 22:25:39;;;;;;;12.98;10.02;;;;;;;20.75;100.00;99796.91;10407234;28;20409;-81
2023/07/24 22:30:40;;;;;;;15.98;10.70;;;;;;;20.26;100.00;99730.09;10406001;28;20037;-81
2023/07/24 22:35:41;;;;;;;14.52;10.88;;;;;;;20.62;100.00;99783.78;10406566;28;20084;-81
2023/07/24 22:40:42;;;;;;;12.93;10.50;;;;;;;20.49;100.00;99766.84;10406592;28;20500;-80
2023/07/24 22:45:43;;;;;;;11.65;10.38;;;;;;;20.58;100.00;99774.53;10406429;28;20048;-81
2023/07/24 22:50:45;;;;;;;13.60;10.30;;;;;;;20.13;100.00;99708.03;10406162;28;20520;-80
2023/07/24 22:55:47;;;;;;;14.95;10.70;;;;;;;20.42;100.00;99758.09;10405835;28;20098;-81
2023/07/24 23:00:47;;;;;;;13.82;10.30;;;;;;;20.60;100.00;99777.81;10405232;28;20500;-81
2023/07/24 23:05:49;;;;;;;12.73;9.80;;;;;;;20.44;100.00;99766.78;10405458;28;20075;-78
2023/07/24 23:10:50;;;;;;;11.85;10.48;;;;;;;20.46;100.00;99783.53;10408558;28;20041;-80